Time;durP1;ratioP1;P1;durP2;ratioP2;P2;SDS_P1;SDS_P2;PMS_P1;PMS_P2;Temp;Humidity;BMP_temperature;BMP_pressure;BME280_temperature;BME280_humidity;BME280_pressure;Samples;Min_cycle;Max_cycle;Signal;HPM_P1;HPM_P2
2022/04/23 00:01:20;;;;;;;10.73;7.60;;;15.70;60.60;;;;;;5085073;28;20028;-68
2022/04/23 00:03:46;;;;;;;11.63;7.55;;;15.70;60.60;;;;;;5080574;28;20036;-68
2022/04/23 00:06:11;;;;;;;12.48;7.85;;;15.70;60.60;;;;;;5079093;28;20016;-68
2022/04/23 00:08:37;;;;;;;11.10;7.75;;;15.70;60.60;;;;;;5083817;28;20553;-69
2022/04/23 00:11:03;;;;;;;12.15;8.25;;;15.70;60.60;;;;;;5068110;28;20123;-69
2022/04/23 00:13:29;;;;;;;11.75;8.45;;;15.70;60.50;;;;;;5087783;28;20028;-68
2022/04/23 00:15:54;;;;;;;11.40;7.88;;;15.60;60.40;;;;;;5078634;28;20093;-68
2022/04/23 00:18:20;;;;;;;13.65;7.68;;;15.70;60.40;;;;;;5084619;28;20117;-68
2022/04/23 00:20:46;;;;;;;11.80;7.50;;;15.60;60.40;;;;;;5085657;28;20070;-68
2022/04/23 00:23:13;;;;;;;11.32;7.85;;;15.60;60.40;;;;;;5085969;28;20563;-68
2022/04/23 00:25:39;;;;;;;10.20;7.80;;;15.60;60.20;;;;;;5072021;28;20066;-68
2022/04/23 00:28:06;;;;;;;13.73;7.72;;;15.60;60.20;;;;;;5085265;28;20414;-68
2022/04/23 00:30:33;;;;;;;12.88;7.63;;;15.60;60.00;;;;;;5084896;28;20016;-68
2022/04/23 00:33:00;;;;;;;10.70;7.72;;;15.70;59.90;;;;;;5084511;28;20077;-68
2022/04/23 00:35:26;;;;;;;11.00;7.68;;;15.60;59.70;;;;;;5087962;28;20048;-68
2022/04/23 00:37:52;;;;;;;11.80;7.45;;;15.70;59.80;;;;;;5085351;28;20028;-69
2022/04/23 00:40:18;;;;;;;9.90;7.68;;;15.70;59.60;;;;;;5074991;28;20032;-68
2022/04/23 00:42:51;;;;;;;9.93;7.22;;;15.70;59.50;;;;;;5080970;28;20032;-68
2022/04/23 00:45:17;;;;;;;12.80;8.10;;;15.70;59.30;;;;;;5079908;28;20032;-68
2022/04/23 00:47:43;;;;;;;12.15;7.50;;;15.70;59.30;;;;;;5082549;28;20020;-68
2022/04/23 00:50:10;;;;;;;12.23;8.52;;;15.70;59.00;;;;;;5085508;28;20054;-68
2022/04/23 00:52:36;;;;;;;12.38;7.93;;;15.70;59.00;;;;;;5090041;28;20762;-68
2022/04/23 00:55:04;;;;;;;10.38;7.65;;;15.70;58.70;;;;;;5085317;28;20030;-68
2022/04/23 00:57:30;;;;;;;11.27;7.65;;;15.70;58.70;;;;;;5084217;28;20027;-68
2022/04/23 00:59:56;;;;;;;13.63;8.30;;;15.70;58.70;;;;;;5086126;28;20036;-68
2022/04/23 01:02:22;;;;;;;15.98;8.50;;;15.60;58.80;;;;;;5087082;28;20020;-68
2022/04/23 01:04:48;;;;;;;18.60;8.00;;;15.60;59.20;;;;;;5088730;28;20513;-68
2022/04/23 01:07:14;;;;;;;13.57;7.88;;;15.60;58.70;;;;;;5086051;28;20024;-68
2022/04/23 01:09:44;;;;;;;13.65;7.53;;;15.60;58.80;;;;;;5084656;28;20395;-68
2022/04/23 01:12:13;;;;;;;11.18;7.63;;;15.60;58.70;;;;;;5086279;28;20529;-68
2022/04/23 01:14:57;;;;;;;13.27;8.65;;;15.60;58.80;;;;;;5084418;28;20114;-68
2022/04/23 01:17:23;;;;;;;14.68;8.27;;;15.60;58.60;;;;;;5087620;28;20028;-68
2022/04/23 01:19:48;;;;;;;13.25;7.70;;;15.50;58.70;;;;;;5071132;28;20617;-68
2022/04/23 01:22:15;;;;;;;12.02;7.90;;;15.50;58.60;;;;;;5090190;28;20039;-68
2022/04/23 01:24:43;;;;;;;12.23;7.75;;;15.60;59.50;;;;;;5086567;28;20122;-68
2022/04/23 01:27:10;;;;;;;14.48;8.55;;;15.50;58.40;;;;;;5086495;28;20031;-68
2022/04/23 01:29:39;;;;;;;11.68;8.40;;;15.50;58.60;;;;;;5089759;28;20028;-68
2022/04/23 01:32:05;;;;;;;13.48;8.63;;;15.50;58.50;;;;;;5082183;28;20510;-68
2022/04/23 01:34:31;;;;;;;15.50;8.52;;;15.50;58.60;;;;;;5087369;28;20103;-68
2022/04/23 01:36:57;;;;;;;11.13;8.02;;;15.50;58.60;;;;;;5084194;28;20130;-68
2022/04/23 01:39:23;;;;;;;11.75;8.23;;;15.50;58.60;;;;;;5080805;28;20113;-68
2022/04/23 01:41:48;;;;;;;11.55;8.23;;;15.50;58.70;;;;;;5079326;28;20425;-68
2022/04/23 01:44:15;;;;;;;13.40;9.10;;;15.50;58.80;;;;;;5088538;28;20093;-68
2022/04/23 01:46:40;;;;;;;11.25;7.97;;;15.40;58.70;;;;;;5088560;28;20028;-68
2022/04/23 01:49:06;;;;;;;11.80;8.77;;;15.40;59.00;;;;;;5074111;28;20055;-68
2022/04/23 01:51:32;;;;;;;13.60;8.60;;;15.40;58.90;;;;;;5083456;28;20039;-68
2022/04/23 01:53:58;;;;;;;13.55;8.70;;;15.30;59.00;;;;;;5083654;28;20033;-68
2022/04/23 01:56:24;;;;;;;13.40;8.85;;;15.30;60.00;;;;;;5086091;28;20028;-68
2022/04/23 01:58:50;;;;;;;13.07;8.57;;;15.30;59.20;;;;;;5088721;28;20044;-68
2022/04/23 02:01:17;;;;;;;12.10;8.73;;;15.30;59.20;;;;;;5076135;28;20038;-68
2022/04/23 02:03:43;;;;;;;13.05;8.55;;;15.30;59.00;;;;;;5079191;28;20024;-68
2022/04/23 02:06:09;;;;;;;13.23;8.88;;;14.80;59.10;;;;;;5079824;28;20109;-68
2022/04/23 02:08:34;;;;;;;14.77;9.10;;;15.30;59.30;;;;;;5085173;28;20493;-68
2022/04/23 02:11:00;;;;;;;13.85;8.88;;;15.30;59.20;;;;;;5082886;28;20106;-68
2022/04/23 02:13:27;;;;;;;12.32;9.20;;;15.30;59.10;;;;;;5089337;28;20036;-68
2022/04/23 02:15:52;;;;;;;13.23;8.77;;;15.30;59.20;;;;;;5078783;28;20657;-68
2022/04/23 02:18:21;;;;;;;15.52;9.30;;;15.30;59.10;;;;;;5079627;28;20041;-68
2022/04/23 02:20:47;;;;;;;14.20;9.00;;;15.30;59.00;;;;;;5084524;28;20507;-68
2022/04/23 02:23:13;;;;;;;13.55;9.57;;;15.30;59.00;;;;;;5085087;28;20399;-68
2022/04/23 02:25:39;;;;;;;14.70;9.32;;;15.30;59.00;;;;;;5088632;28;20494;-68
2022/04/23 02:28:05;;;;;;;16.45;9.57;;;15.30;59.10;;;;;;5075125;28;20029;-68
2022/04/23 02:30:32;;;;;;;14.40;9.35;;;15.20;59.10;;;;;;5076709;28;20065;-68
2022/04/23 02:32:58;;;;;;;13.30;9.68;;;15.20;59.20;;;;;;5084489;28;20032;-68
2022/04/23 02:35:24;;;;;;;13.40;9.32;;;15.20;59.30;;;;;;5087211;28;20036;-68
2022/04/23 02:37:56;;;;;;;12.32;9.25;;;15.20;59.40;;;;;;5081743;28;20073;-68
2022/04/23 02:40:22;;;;;;;13.32;9.43;;;15.20;59.50;;;;;;5074337;28;20063;-68
2022/04/23 02:42:50;;;;;;;13.70;9.50;;;15.20;59.50;;;;;;5075136;28;20078;-68
2022/04/23 02:45:16;;;;;;;14.32;9.98;;;15.10;59.80;;;;;;5078963;28;20075;-68
2022/04/23 02:47:52;;;;;;;14.65;9.63;;;15.10;59.70;;;;;;5080324;28;20483;-68
2022/04/23 02:50:37;;;;;;;15.13;10.32;;;15.10;59.70;;;;;;5087824;28;20028;-68
2022/04/23 02:53:04;;;;;;;14.57;9.88;;;15.10;59.80;;;;;;5081234;28;20135;-68
2022/04/23 02:55:34;;;;;;;14.80;10.30;;;15.10;59.80;;;;;;5076871;28;20032;-68
2022/04/23 02:58:10;;;;;;;13.40;9.80;;;15.10;60.00;;;;;;5079258;28;20024;-68
2022/04/23 03:00:40;;;;;;;16.50;9.85;;;15.10;60.00;;;;;;5084643;28;20032;-68
2022/04/23 03:03:07;;;;;;;14.70;10.88;;;15.10;59.90;;;;;;5080469;28;20036;-68
2022/04/23 03:05:34;;;;;;;13.65;10.10;;;15.10;59.90;;;;;;5075045;28;20548;-68
2022/04/23 03:08:02;;;;;;;16.95;10.77;;;15.10;59.80;;;;;;5084675;28;20016;-68
2022/04/23 03:10:29;;;;;;;14.20;10.57;;;15.10;60.20;;;;;;5088285;28;20093;-68
2022/04/23 03:12:57;;;;;;;15.32;10.73;;;15.10;60.20;;;;;;5073753;28;20091;-68
2022/04/23 03:15:24;;;;;;;15.73;10.95;;;15.10;60.20;;;;;;5080951;28;20472;-68
2022/04/23 03:17:50;;;;;;;15.98;10.68;;;15.10;60.30;;;;;;5082650;28;20028;-68
2022/04/23 03:20:17;;;;;;;16.60;11.43;;;15.10;60.70;;;;;;5086974;28;20403;-68
2022/04/23 03:22:43;;;;;;;17.05;11.43;;;15.10;60.90;;;;;;5085567;28;20066;-68
2022/04/23 03:25:11;;;;;;;14.70;11.60;;;15.10;61.20;;;;;;5084853;28;20028;-68
2022/04/23 03:27:37;;;;;;;18.02;11.48;;;15.10;61.20;;;;;;5078686;28;20017;-68
2022/04/23 03:30:05;;;;;;;16.27;12.07;;;15.10;61.90;;;;;;5074133;28;20632;-68
2022/04/23 03:32:32;;;;;;;17.25;11.65;;;15.00;62.40;;;;;;5082477;28;20073;-68
2022/04/23 03:34:59;;;;;;;16.25;11.90;;;14.90;63.40;;;;;;5072290;28;20035;-68
2022/04/23 03:37:25;;;;;;;15.40;11.25;;;14.90;63.90;;;;;;5083908;28;20437;-68
2022/04/23 03:39:51;;;;;;;16.02;12.13;;;14.90;64.20;;;;;;5074689;28;20032;-68
2022/04/23 03:42:16;;;;;;;18.15;12.07;;;14.80;64.90;;;;;;5077045;28;20036;-68
2022/04/23 03:44:42;;;;;;;18.17;12.23;;;14.80;65.20;;;;;;5073399;28;20055;-67
2022/04/23 03:47:08;;;;;;;15.60;12.10;;;14.80;65.60;;;;;;5081922;28;20148;-68
2022/04/23 03:49:34;;;;;;;16.95;12.73;;;14.80;65.50;;;;;;5084115;28;20037;-68
2022/04/23 03:51:59;;;;;;;19.05;13.07;;;14.70;66.50;;;;;;5083928;28;20032;-68
2022/04/23 03:54:26;;;;;;;18.73;13.25;;;14.70;66.50;;;;;;5075931;28;20063;-68
2022/04/23 03:56:52;;;;;;;16.90;12.52;;;14.70;66.80;;;;;;5084478;28;20032;-68
2022/04/23 03:59:21;;;;;;;20.05;13.73;;;14.80;67.10;;;;;;5069875;28;20036;-69
2022/04/23 04:01:48;;;;;;;17.75;12.95;;;14.70;67.30;;;;;;5081134;28;20500;-68
2022/04/23 04:04:14;;;;;;;17.38;12.85;;;14.70;67.10;;;;;;5073264;28;20025;-68
2022/04/23 04:06:41;;;;;;;18.15;13.15;;;14.70;67.10;;;;;;5078875;28;20058;-68
2022/04/23 04:09:07;;;;;;;18.30;13.48;;;14.70;66.80;;;;;;5081923;28;20095;-68
2022/04/23 04:14:17;;;;;;;18.40;13.70;;;14.70;67.50;;;;;;5072515;28;20418;-68
2022/04/23 04:16:43;;;;;;;18.30;13.15;;;14.80;66.50;;;;;;5087090;28;20487;-68
2022/04/23 04:19:09;;;;;;;16.35;12.73;;;14.80;66.60;;;;;;5086864;28;20490;-68
2022/04/23 04:21:35;;;;;;;19.52;13.93;;;14.70;66.60;;;;;;5084212;28;20050;-68
2022/04/23 04:24:01;;;;;;;18.98;13.00;;;14.70;66.30;;;;;;5080469;28;20492;-68
2022/04/23 04:26:26;;;;;;;19.33;14.18;;;14.70;66.10;;;;;;5079858;28;20055;-68
2022/04/23 04:28:52;;;;;;;16.83;12.73;;;14.80;66.00;;;;;;5073468;28;20032;-68
2022/04/23 04:34:02;;;;;;;17.80;13.35;;;14.70;66.20;;;;;;5087188;28;20043;-68
2022/04/23 04:36:28;;;;;;;18.80;13.05;;;14.70;66.20;;;;;;5080977;28;20040;-68
2022/04/23 04:38:53;;;;;;;25.95;14.15;;;14.80;66.00;;;;;;5083294;28;20044;-68
2022/04/23 04:41:19;;;;;;;18.30;13.38;;;14.80;66.00;;;;;;5084785;28;20066;-68
2022/04/23 04:43:46;;;;;;;17.45;13.55;;;14.80;65.90;;;;;;5069156;28;20119;-68
2022/04/23 04:46:12;;;;;;;17.95;13.60;;;14.80;65.90;;;;;;5084394;28;20027;-68
2022/04/23 04:48:37;;;;;;;17.38;13.57;;;14.80;65.90;;;;;;5074414;28;20037;-69
2022/04/23 04:51:03;;;;;;;19.00;13.82;;;14.90;66.10;;;;;;5082623;28;20028;-68
2022/04/23 04:53:29;;;;;;;18.65;13.77;;;14.90;66.60;;;;;;5080118;28;20150;-68
2022/04/23 04:55:55;;;;;;;17.85;13.13;;;14.90;65.20;;;;;;5078413;28;20028;-68
2022/04/23 04:58:20;;;;;;;21.55;14.13;;;14.80;64.80;;;;;;5087273;28;20165;-68
2022/04/23 05:00:46;;;;;;;17.20;13.57;;;14.80;64.60;;;;;;5073653;28;20086;-68
2022/04/23 05:03:12;;;;;;;22.15;14.68;;;14.80;64.60;;;;;;5079204;28;20020;-68
2022/04/23 05:05:39;;;;;;;18.63;13.68;;;14.80;64.60;;;;;;5080792;28;20057;-68
2022/04/23 05:08:05;;;;;;;21.63;13.82;;;14.80;64.60;;;;;;5067600;28;20044;-68
2022/04/23 05:10:30;;;;;;;18.23;13.52;;;14.80;64.60;;;;;;5073121;28;20063;-69
2022/04/23 05:12:56;;;;;;;18.70;14.48;;;14.80;64.70;;;;;;5073941;28;20055;-69
2022/04/23 05:15:22;;;;;;;19.05;14.02;;;14.80;64.50;;;;;;5081569;28;20059;-68
2022/04/23 05:17:47;;;;;;;17.30;13.68;;;14.80;64.20;;;;;;5082397;28;20028;-68
2022/04/23 05:20:13;;;;;;;19.77;14.05;;;14.80;64.10;;;;;;5083045;28;20032;-68
2022/04/23 05:22:39;;;;;;;18.33;13.43;;;14.80;63.80;;;;;;5089816;28;20028;-68
2022/04/23 05:25:05;;;;;;;17.83;13.13;;;14.70;63.80;;;;;;5078804;28;20400;-68
2022/04/23 05:27:30;;;;;;;18.80;14.25;;;14.80;63.90;;;;;;5077843;28;20479;-68
2022/04/23 05:29:56;;;;;;;19.90;14.60;;;14.70;63.90;;;;;;5089316;28;20028;-67
2022/04/23 05:32:22;;;;;;;19.95;14.77;;;14.70;63.90;;;;;;5087632;28;20042;-67
2022/04/23 05:34:47;;;;;;;17.42;14.02;;;14.70;63.90;;;;;;5085359;28;22048;-68
2022/04/23 05:37:13;;;;;;;19.55;14.63;;;14.70;64.00;;;;;;5084280;28;20040;-68
2022/04/23 05:39:39;;;;;;;19.45;13.48;;;14.70;63.80;;;;;;5082782;28;20068;-68
2022/04/23 05:42:05;;;;;;;17.27;13.88;;;14.70;63.70;;;;;;5090142;28;20043;-68
2022/04/23 05:44:31;;;;;;;22.50;15.32;;;14.80;63.60;;;;;;5092195;28;20113;-68
2022/04/23 05:46:56;;;;;;;20.95;14.60;;;14.80;64.40;;;;;;5089285;28;20734;-68
2022/04/23 05:49:22;;;;;;;21.90;15.85;;;14.80;63.40;;;;;;5088524;28;20063;-68
2022/04/23 05:51:48;;;;;;;20.27;15.20;;;14.80;63.40;;;;;;5088921;28;20111;-68
2022/04/23 05:54:14;;;;;;;19.17;14.05;;;14.80;63.20;;;;;;5086906;28;20030;-68
2022/04/23 05:56:40;;;;;;;19.73;14.70;;;14.90;63.20;;;;;;5089754;28;20020;-69
2022/04/23 05:59:06;;;;;;;18.38;14.43;;;14.90;63.00;;;;;;5086921;28;20085;-68
2022/04/23 06:01:32;;;;;;;21.52;14.73;;;14.90;62.90;;;;;;5088544;28;20643;-68
2022/04/23 06:03:57;;;;;;;21.52;14.10;;;14.90;63.90;;;;;;5085438;28;20460;-68
2022/04/23 06:06:23;;;;;;;18.35;13.90;;;14.90;63.00;;;;;;5081508;28;20056;-68
2022/04/23 06:08:49;;;;;;;18.67;14.07;;;14.90;63.10;;;;;;5085078;28;20024;-68
2022/04/23 06:11:15;;;;;;;19.98;14.57;;;14.90;63.00;;;;;;5088757;28;20047;-68
2022/04/23 06:13:40;;;;;;;19.05;13.90;;;15.00;63.10;;;;;;5078524;28;20399;-68
2022/04/23 06:16:06;;;;;;;19.80;14.68;;;15.00;63.10;;;;;;5080529;28;20032;-68
2022/04/23 06:18:32;;;;;;;25.15;14.60;;;15.00;63.30;;;;;;5080333;28;20043;-69
2022/04/23 06:20:58;;;;;;;21.17;14.93;;;15.00;63.20;;;;;;5086003;28;20035;-68
2022/04/23 06:23:23;;;;;;;20.40;14.57;;;15.00;63.20;;;;;;5086387;28;20021;-67
2022/04/23 06:25:49;;;;;;;22.83;15.07;;;15.00;63.40;;;;;;5078694;28;20032;-67
2022/04/23 06:28:15;;;;;;;18.75;14.43;;;15.00;63.50;;;;;;5082150;28;20016;-68
2022/04/23 06:30:41;;;;;;;20.40;14.70;;;15.00;63.60;;;;;;5081516;28;20085;-69
2022/04/23 06:33:06;;;;;;;20.70;14.52;;;15.10;63.60;;;;;;5081209;28;20095;-68
2022/04/23 06:35:34;;;;;;;21.17;14.75;;;15.10;63.70;;;;;;5074204;28;20049;-68
2022/04/23 06:38:01;;;;;;;17.38;14.38;;;15.10;64.60;;;;;;5077364;28;20110;-67
2022/04/23 06:40:27;;;;;;;20.63;14.32;;;15.10;63.60;;;;;;5087574;28;20033;-67
2022/04/23 06:42:52;;;;;;;19.63;14.55;;;15.20;63.60;;;;;;5074994;28;20097;-68
2022/04/23 06:45:19;;;;;;;18.83;14.90;;;15.20;63.20;;;;;;5085148;28;20028;-68
2022/04/23 06:47:45;;;;;;;20.30;14.38;;;15.30;63.20;;;;;;5084457;28;20028;-67
2022/04/23 06:50:11;;;;;;;35.42;15.13;;;15.30;63.00;;;;;;5073967;28;20028;-68
2022/04/23 06:52:37;;;;;;;19.40;14.40;;;15.40;62.90;;;;;;5084736;28;20210;-68
2022/04/23 06:55:04;;;;;;;17.05;13.70;;;15.10;62.50;;;;;;5085639;28;20132;-68
2022/04/23 06:57:30;;;;;;;21.70;14.43;;;15.50;62.40;;;;;;5084480;28;20186;-68
2022/04/23 07:00:00;;;;;;;20.52;14.05;;;15.50;62.10;;;;;;5082433;28;20124;-68
2022/04/23 07:02:26;;;;;;;19.90;14.65;;;15.60;62.40;;;;;;5072976;28;20034;-68
2022/04/23 07:04:52;;;;;;;18.95;14.63;;;15.70;62.20;;;;;;5069205;28;20396;-67
2022/04/23 07:07:17;;;;;;;17.27;13.93;;;15.70;62.20;;;;;;5080934;28;20036;-67
2022/04/23 07:09:43;;;;;;;20.10;14.80;;;15.80;61.90;;;;;;5081682;28;20028;-67
2022/04/23 07:12:10;;;;;;;16.92;13.68;;;15.80;61.20;;;;;;5079912;28;20082;-67
2022/04/23 07:14:36;;;;;;;21.13;13.98;;;15.80;60.90;;;;;;5073420;28;20032;-68
2022/04/23 07:17:03;;;;;;;21.10;14.55;;;15.80;61.10;;;;;;5082797;28;20412;-68
2022/04/23 07:19:30;;;;;;;19.45;14.60;;;15.90;61.50;;;;;;5086524;28;20032;-68
2022/04/23 07:21:56;;;;;;;22.70;14.48;;;15.90;61.90;;;;;;5091538;28;20524;-68
2022/04/23 07:24:21;;;;;;;17.90;14.90;;;15.90;62.50;;;;;;5080993;28;20086;-68
2022/04/23 07:26:48;;;;;;;20.10;15.75;;;15.90;62.60;;;;;;5084445;28;20513;-68
2022/04/23 07:29:14;;;;;;;22.35;16.10;;;15.90;63.20;;;;;;5085215;28;20033;-68
2022/04/23 07:31:39;;;;;;;21.13;15.90;;;15.90;64.00;;;;;;5072647;28;20388;-69
2022/04/23 07:39:36;;;;;;;22.08;16.40;;;15.80;64.80;;;;;;5076270;28;20055;-68
2022/04/23 07:42:03;;;;;;;19.27;14.80;;;15.70;65.00;;;;;;5072852;28;20025;-68
2022/04/23 07:44:29;;;;;;;22.70;16.52;;;15.80;65.10;;;;;;5072780;28;20033;-68
2022/04/23 07:46:55;;;;;;;20.05;15.77;;;15.80;65.10;;;;;;5068810;28;20025;-68
2022/04/23 07:49:20;;;;;;;21.13;16.40;;;16.00;65.40;;;;;;5073935;28;20037;-68
2022/04/23 07:51:50;;;;;;;23.83;16.27;;;16.10;65.60;;;;;;5081667;28;20020;-68
2022/04/23 07:54:16;;;;;;;20.40;16.45;;;16.20;65.10;;;;;;5075522;28;20048;-68
2022/04/23 07:56:42;;;;;;;21.73;16.48;;;16.60;64.20;;;;;;5073932;28;20020;-68
2022/04/23 07:59:09;;;;;;;23.85;16.42;;;17.10;63.30;;;;;;5083982;28;20037;-68
2022/04/23 08:01:35;;;;;;;18.85;13.88;;;17.50;62.10;;;;;;5073627;28;20029;-68
2022/04/23 08:04:03;;;;;;;18.25;15.13;;;17.90;60.00;;;;;;5072411;28;20043;-68
2022/04/23 08:06:30;;;;;;;18.02;14.20;;;18.30;56.70;;;;;;5071784;28;20107;-68
2022/04/23 08:08:56;;;;;;;18.75;13.73;;;19.00;55.80;;;;;;5080462;28;20044;-68
2022/04/23 08:11:25;;;;;;;17.15;14.20;;;19.70;51.40;;;;;;5072411;28;20020;-68
2022/04/23 08:13:51;;;;;;;21.17;15.27;;;19.60;51.20;;;;;;5068937;28;20024;-68
2022/04/23 08:16:17;;;;;;;19.15;14.00;;;19.50;51.40;;;;;;5086637;28;20595;-68
2022/04/23 08:18:43;;;;;;;17.42;14.88;;;18.90;52.60;;;;;;5076695;28;20036;-68
2022/04/23 08:21:10;;;;;;;18.63;14.52;;;18.50;54.10;;;;;;5082384;28;20050;-68
2022/04/23 08:23:36;;;;;;;20.63;15.32;;;18.40;54.20;;;;;;5080364;28;20059;-68
2022/04/23 08:26:05;;;;;;;17.98;14.52;;;18.20;54.60;;;;;;5072413;28;20055;-68
2022/04/23 08:31:18;;;;;;;19.58;14.90;;;18.30;54.70;;;;;;5078479;28;20070;-68
2022/04/23 08:33:59;;;;;;;18.05;14.95;;;18.20;55.20;;;;;;5079973;28;20051;-68
2022/04/23 08:36:29;;;;;;;;;;;18.30;55.30;;;;;;5081628;28;20054;-68
2022/04/23 08:38:56;;;;;;;17.75;14.63;;;18.40;55.10;;;;;;5082560;28;20002;-69
2022/04/23 08:41:29;;;;;;;18.75;13.60;;;18.60;54.10;;;;;;5084015;28;20070;-69
2022/04/23 08:43:58;;;;;;;19.45;14.93;;;19.50;51.40;;;;;;5075224;28;20380;-69
2022/04/23 08:46:27;;;;;;;16.63;14.60;;;19.70;50.20;;;;;;5071182;28;20051;-68
2022/04/23 08:49:17;;;;;;;19.08;14.65;;;20.50;47.30;;;;;;5073667;28;20029;-69
2022/04/23 08:51:54;;;;;;;17.70;14.40;;;21.20;44.30;;;;;;5078920;28;20036;-68
2022/04/23 08:54:24;;;;;;;18.10;14.02;;;21.80;42.80;;;;;;5075691;28;20028;-69
2022/04/23 08:56:50;;;;;;;16.92;13.65;;;22.20;41.70;;;;;;5083116;28;20066;-68
2022/04/23 08:59:20;;;;;;;16.65;14.20;;;22.10;41.70;;;;;;5081817;28;20044;-69
2022/04/23 09:01:46;;;;;;;17.67;14.10;;;21.90;41.80;;;;;;5077590;28;20054;-68
2022/04/23 09:04:12;;;;;;;17.02;13.68;;;21.60;42.60;;;;;;5080449;28;20035;-69
2022/04/23 09:06:43;;;;;;;16.75;14.00;;;21.60;43.60;;;;;;5083663;28;20036;-69
2022/04/23 09:09:20;;;;;;;17.27;14.07;;;21.60;43.00;;;;;;5085239;28;20067;-68
2022/04/23 09:11:57;;;;;;;16.30;13.43;;;21.50;43.10;;;;;;5082315;28;20343;-68
2022/04/23 09:14:28;;;;;;;18.10;12.95;;;21.40;43.80;;;;;;5085172;28;20028;-68
2022/04/23 09:25:36;;;;;;;17.17;12.35;;;20.60;45.80;;;;;;5093492;28;20523;-69
2022/04/23 09:28:29;;;;;;;15.02;12.50;;;20.50;45.50;;;;;;5085348;28;20028;-69
2022/04/23 09:30:56;;;;;;;19.75;12.88;;;20.50;45.80;;;;;;5085731;28;20040;-69
2022/04/23 09:33:41;;;;;;;15.10;12.43;;;20.50;45.90;;;;;;5083978;28;20032;-69
2022/04/23 09:36:08;;;;;;;14.95;12.30;;;20.40;46.80;;;;;;5085432;28;20055;-68
2022/04/23 09:38:34;;;;;;;15.80;12.13;;;20.40;46.50;;;;;;5083120;28;20045;-69
2022/04/23 09:41:16;;;;;;;16.15;12.57;;;20.40;44.70;;;;;;5090129;28;20110;-69
2022/04/23 09:44:09;;;;;;;16.77;12.63;;;20.40;45.10;;;;;;5074538;28;20030;-70
2022/04/23 09:46:48;;;;;;;17.42;12.45;;;20.30;45.50;;;;;;5085937;28;20046;-70
2022/04/23 09:49:23;;;;;;;16.88;12.52;;;20.40;46.00;;;;;;5084226;28;20035;-69
2022/04/23 09:52:08;;;;;;;16.35;12.30;;;20.40;46.10;;;;;;5081604;28;20028;-69
2022/04/23 09:54:35;;;;;;;16.08;12.57;;;20.40;45.50;;;;;;5086346;28;20027;-68
2022/04/23 09:57:03;;;;;;;15.48;11.45;;;20.40;45.30;;;;;;5084787;28;20028;-69
2022/04/23 09:59:28;;;;;;;15.98;12.65;;;20.50;46.30;;;;;;5085043;28;20043;-69
2022/04/23 10:01:55;;;;;;;14.52;11.10;;;20.50;46.80;;;;;;5080224;28;20028;-69
2022/04/23 10:04:26;;;;;;;14.30;11.07;;;20.60;45.40;;;;;;5075506;28;20426;-68
2022/04/23 10:06:54;;;;;;;15.98;11.52;;;20.70;45.30;;;;;;5080291;28;20024;-68
2022/04/23 10:09:24;;;;;;;14.30;10.70;;;20.70;45.50;;;;;;5078965;28;20103;-68
2022/04/23 10:12:04;;;;;;;14.70;11.77;;;20.80;45.00;;;;;;5083673;28;20111;-68
2022/04/23 10:14:37;;;;;;;16.92;12.70;;;21.00;45.60;;;;;;5077203;28;20040;-69
2022/04/23 10:17:05;;;;;;;14.38;12.73;;;21.10;45.80;;;;;;5085496;28;20031;-69
2022/04/23 10:19:32;;;;;;;16.83;11.73;;;21.20;45.40;;;;;;5088031;28;20032;-68
2022/04/23 10:22:19;;;;;;;15.95;12.07;;;21.40;44.80;;;;;;5085823;28;20031;-67
2022/04/23 10:25:24;;;;;;;14.50;12.40;;;21.50;45.60;;;;;;5084394;28;20034;-68
2022/04/23 10:27:51;;;;;;;16.17;11.65;;;21.80;44.70;;;;;;5078157;28;20073;-69
2022/04/23 10:30:17;;;;;;;15.55;12.48;;;22.00;43.80;;;;;;5077083;28;20021;-69
2022/04/23 10:32:43;;;;;;;15.65;12.20;;;22.20;42.10;;;;;;5086172;28;20113;-67
2022/04/23 10:35:18;;;;;;;15.02;12.27;;;22.30;42.60;;;;;;5085912;28;20044;-67
2022/04/23 10:37:45;;;;;;;16.27;12.25;;;22.40;41.60;;;;;;5080805;28;20028;-68
2022/04/23 10:40:11;;;;;;;14.15;11.55;;;22.50;41.30;;;;;;5082407;28;20411;-67
2022/04/23 10:42:38;;;;;;;13.35;10.52;;;22.60;41.60;;;;;;5076713;28;20029;-67
2022/04/23 10:45:06;;;;;;;14.57;10.30;;;22.70;42.20;;;;;;5079722;28;20043;-68
2022/04/23 10:47:34;;;;;;;13.82;10.40;;;22.80;39.70;;;;;;5076196;28;20032;-68
2022/04/23 10:50:19;;;;;;;12.23;9.90;;;22.80;40.00;;;;;;5087247;28;20032;-68
2022/04/23 10:52:47;;;;;;;10.88;9.57;;;22.80;40.50;;;;;;5072153;28;20156;-68
2022/04/23 10:55:14;;;;;;;11.48;9.30;;;22.80;40.60;;;;;;5084654;28;20058;-68
2022/04/23 10:57:46;;;;;;;12.23;8.93;;;23.10;40.70;;;;;;5080077;28;20480;-68
2022/04/23 11:00:13;;;;;;;12.20;9.07;;;23.30;40.50;;;;;;5087125;28;20051;-69
2022/04/23 11:02:39;;;;;;;11.27;9.52;;;23.40;40.10;;;;;;5087467;28;20035;-69
2022/04/23 11:13:57;;;;;;;18.20;10.13;;;23.70;38.90;;;;;;5075319;28;20478;-68
2022/04/23 11:16:24;;;;;;;14.43;8.80;;;23.80;38.80;;;;;;5082267;28;20070;-68
2022/04/23 11:18:54;;;;;;;9.35;7.53;;;24.00;38.20;;;;;;5084085;28;20040;-68
2022/04/23 11:21:26;;;;;;;9.63;7.88;;;24.00;37.90;;;;;;5081819;28;20028;-68
2022/04/23 11:23:54;;;;;;;10.68;7.60;;;24.00;37.20;;;;;;5077657;28;20055;-67
2022/04/23 11:26:40;;;;;;;8.63;6.80;;;24.00;38.20;;;;;;5084845;28;20044;-68
2022/04/23 11:29:06;;;;;;;7.03;5.50;;;23.80;39.30;;;;;;5082455;28;20070;-68
2022/04/23 11:31:31;;;;;;;7.20;5.30;;;23.60;37.40;;;;;;5084332;28;20100;-68
2022/04/23 11:33:59;;;;;;;8.02;5.53;;;23.30;38.30;;;;;;5085360;28;20028;-68
2022/04/23 11:36:35;;;;;;;8.35;6.40;;;22.90;38.70;;;;;;5084276;28;20457;-68
2022/04/23 11:39:07;;;;;;;11.13;5.97;;;22.70;39.40;;;;;;5082675;28;20073;-68
2022/04/23 11:41:50;;;;;;;9.23;6.38;;;22.50;39.40;;;;;;5061172;28;20471;-68
2022/04/23 11:44:16;;;;;;;10.30;6.82;;;22.50;39.70;;;;;;5081184;28;20037;-68
2022/04/23 11:46:48;;;;;;;10.15;7.28;;;22.70;39.40;;;;;;5085297;28;20104;-70
2022/04/23 11:49:30;;;;;;;9.68;6.40;;;23.00;39.50;;;;;;5081066;28;20119;-69
2022/04/23 11:52:05;;;;;;;13.75;8.05;;;23.50;39.80;;;;;;5082505;28;20433;-69
2022/04/23 11:54:37;;;;;;;10.68;7.28;;;23.70;39.00;;;;;;5076584;28;20032;-69
2022/04/23 11:57:05;;;;;;;10.82;7.68;;;23.90;38.60;;;;;;5074821;28;20192;-69
2022/04/23 11:59:48;;;;;;;9.80;7.70;;;23.90;38.60;;;;;;5073814;28;20037;-69
2022/04/23 12:02:21;;;;;;;10.35;8.07;;;24.00;38.50;;;;;;5074281;28;20028;-69
2022/04/23 12:04:48;;;;;;;10.40;8.90;;;24.00;38.60;;;;;;5068412;28;20063;-68
2022/04/23 12:07:15;;;;;;;9.20;8.23;;;24.00;38.30;;;;;;5081708;28;20031;-69
2022/04/23 12:09:45;;;;;;;11.98;8.18;;;23.90;38.40;;;;;;5080328;28;20392;-68
2022/04/23 12:12:14;;;;;;;10.45;8.05;;;23.50;39.70;;;;;;5080899;28;20028;-69
2022/04/23 12:14:47;;;;;;;12.10;7.88;;;23.20;40.50;;;;;;5082432;28;20518;-68
2022/04/23 12:17:25;;;;;;;11.25;8.18;;;22.80;41.10;;;;;;5078651;28;20032;-68
2022/04/23 12:19:52;;;;;;;11.80;8.30;;;22.40;42.80;;;;;;5077718;28;20074;-68
2022/04/23 12:22:29;;;;;;;13.25;9.43;;;22.10;44.10;;;;;;5083948;28;20031;-70
2022/04/23 12:25:18;;;;;;;11.88;9.50;;;21.80;45.50;;;;;;5080980;28;20056;-69
2022/04/23 12:28:00;;;;;;;10.75;9.27;;;21.60;47.40;;;;;;5080322;28;20052;-68
2022/04/23 12:41:58;;;;;;;3.97;2.20;;;21.90;45.60;;;;;;5087627;28;20047;-68
2022/04/23 12:44:29;;;;;;;5.18;2.42;;;21.80;44.20;;;;;;5087151;28;20495;-67
2022/04/23 12:47:04;;;;;;;4.10;2.35;;;21.70;45.00;;;;;;5085462;28;20028;-68
2022/04/23 12:49:49;;;;;;;4.50;2.33;;;21.50;45.70;;;;;;5091655;28;20036;-67
2022/04/23 12:52:19;;;;;;;5.93;2.60;;;21.30;45.30;;;;;;5088452;28;20035;-67
2022/04/23 12:55:17;;;;;;;11.52;3.10;;;21.20;45.70;;;;;;5075080;28;20150;-67
2022/04/23 12:57:46;;;;;;;5.97;3.00;;;21.00;46.20;;;;;;5082415;28;20040;-68
2022/04/23 13:00:17;;;;;;;4.97;3.00;;;20.90;46.60;;;;;;5083848;28;20560;-67
2022/04/23 13:02:47;;;;;;;4.70;3.08;;;20.80;47.20;;;;;;5089350;28;20036;-67
2022/04/23 13:05:14;;;;;;;5.10;3.00;;;20.80;47.90;;;;;;5087266;28;20028;-67
2022/04/23 13:10:24;;;;;;;6.35;3.30;;;20.90;48.60;;;;;;5084449;28;20035;-68
2022/04/23 13:12:50;;;;;;;5.25;2.97;;;20.90;48.70;;;;;;5079928;28;20040;-67
2022/04/23 13:15:16;;;;;;;4.65;2.60;;;20.90;48.20;;;;;;5083878;28;20552;-68
2022/04/23 13:17:43;;;;;;;5.28;3.13;;;20.90;48.20;;;;;;5076553;28;20017;-68
2022/04/23 13:20:10;;;;;;;4.72;2.40;;;20.90;49.50;;;;;;5086821;28;20119;-67
2022/04/23 13:22:37;;;;;;;4.60;2.22;;;20.90;48.90;;;;;;5089937;28;20711;-67
2022/04/23 13:25:04;;;;;;;8.13;4.20;;;20.90;49.40;;;;;;5081549;28;20033;-68